Current | Forecast
Updated: 12:41 PM EEST on August 20, 2017
Observed at Boryspil', Ukraine
Temperature 32°C
Humidity 26%
Dew Point 10°C
Wind ESE at 14 km/h
Pressure 1019 hPa (Steady)
Conditions Clear
Visibility -
UV N/A
Clouds
Yesterday's Maximum 34°C
Yesterday's Minimum 14°C approx.
Yesterday's Cooling Degree Days 10 approx.
Sunrise5:53 AM EEST
Sunset8:03 PM EEST
Moon Rise3:59 AM EEST
Moon Set7:18 PM EEST
Moon PhaseMoon Phase
Waning Crescent
Raw METARSPECI UKBB 200941Z 12004MPS 090V150 CAVOK 32/10 Q1019 R88/CLRD// NOSIG


Monday
. High: 60° F.
Tuesday
. High: 64° F.
Wednesday
. High: 68° F.
Thursday
. High: 73° F.
Friday
. High: 60° F.
Saturday
. High: 66° F.
Sunday
. High: 64° F.
Monday
. High: 71° F.

Units: English | Metric

Find the Weather for any City, State or Zipcode, or Country:

U.S. State List | Severe Weather | Tropical Storms | Ski Conditions
United States | Canada | Central America | South America | Asia | Europe | Australia | Africa | Islands

Weather Underground

© Copyright 2017
The Weather Company, LLC